Terminal Aerodrome Forecast
Issued by NWS

Home | Current Version | Previous Version | Text Only | Print | Product List | Glossary On
Versions: 1 2 3 4 5 6 7 8 9 10 11 12 13 14 15 16 17 18 19 20 21 22 23 24 25 26 27 28 29 30 31 32
000
FTAK31 PANC 070304 AAA
TAFAHO
TAF AMD
PAHO 070304Z 0703/0724 19009KT P6SM VCSH OVC035
     FM070600 18012KT P6SM -RA OVC025
     FM070800 17014G18KT 5SM -RA BR SCT012 OVC020
     FM071800 22015G22KT P6SM -SHRA BKN030
     FM072100 25012G20KT P6SM VCSH SCT030 BKN045=

USA.gov is the U.S. government's official web portal to all federal, state and local government web resources and services.